sensor_id;sensor_type;location;lat;lon;timestamp;pressure;altitude;pressure_sealevel;temperature;humidity
74790;BME280;63318;52.406;13.416;2023-10-13T00:01:49;101076.34;;;13.39;84.50
74790;BME280;63318;52.406;13.416;2023-10-13T00:04:18;101077.69;;;13.40;84.43
74790;BME280;63318;52.406;13.416;2023-10-13T00:06:46;101072.10;;;13.39;84.31
74790;BME280;63318;52.406;13.416;2023-10-13T00:09:14;101066.58;;;13.39;84.33
74790;BME280;63318;52.406;13.416;2023-10-13T00:11:46;101063.45;;;13.38;84.48
74790;BME280;63318;52.406;13.416;2023-10-13T00:14:14;101064.58;;;13.38;84.45
74790;BME280;63318;52.406;13.416;2023-10-13T00:16:43;101060.27;;;13.37;84.43
74790;BME280;63318;52.406;13.416;2023-10-13T00:19:12;101061.41;;;13.36;84.57
74790;BME280;63318;52.406;13.416;2023-10-13T00:21:40;101055.98;;;13.35;84.66
74790;BME280;63318;52.406;13.416;2023-10-13T00:24:09;101053.48;;;13.34;84.60
74790;BME280;63318;52.406;13.416;2023-10-13T00:26:38;101046.02;;;13.33;84.60
74790;BME280;63318;52.406;13.416;2023-10-13T00:29:06;101050.42;;;13.33;84.65
74790;BME280;63318;52.406;13.416;2023-10-13T00:31:34;101051.05;;;13.32;84.70
74790;BME280;63318;52.406;13.416;2023-10-13T00:34:03;101050.86;;;13.31;84.60
74790;BME280;63318;52.406;13.416;2023-10-13T00:36:31;101051.39;;;13.31;84.66
74790;BME280;63318;52.406;13.416;2023-10-13T00:38:59;101048.42;;;13.31;84.74
74790;BME280;63318;52.406;13.416;2023-10-13T00:41:27;101047.41;;;13.30;84.87
74790;BME280;63318;52.406;13.416;2023-10-13T00:43:56;101046.73;;;13.30;84.77
74790;BME280;63318;52.406;13.416;2023-10-13T00:46:24;101043.45;;;13.29;84.65
74790;BME280;63318;52.406;13.416;2023-10-13T00:48:52;101039.05;;;13.29;84.82
74790;BME280;63318;52.406;13.416;2023-10-13T00:51:21;101036.38;;;13.29;84.96
74790;BME280;63318;52.406;13.416;2023-10-13T00:53:49;101036.98;;;13.28;85.08
74790;BME280;63318;52.406;13.416;2023-10-13T00:56:18;101031.86;;;13.28;84.79
74790;BME280;63318;52.406;13.416;2023-10-13T00:58:47;101035.55;;;13.27;84.74
74790;BME280;63318;52.406;13.416;2023-10-13T01:01:15;101034.36;;;13.26;84.94
74790;BME280;63318;52.406;13.416;2023-10-13T01:03:43;101028.23;;;13.25;84.81
74790;BME280;63318;52.406;13.416;2023-10-13T01:06:12;101030.70;;;13.25;84.86
74790;BME280;63318;52.406;13.416;2023-10-13T01:08:41;101035.67;;;13.24;85.07
74790;BME280;63318;52.406;13.416;2023-10-13T01:11:09;101036.17;;;13.23;85.14
74790;BME280;63318;52.406;13.416;2023-10-13T01:13:37;101032.77;;;13.24;85.31
74790;BME280;63318;52.406;13.416;2023-10-13T01:16:05;101031.27;;;13.23;85.33
74790;BME280;63318;52.406;13.416;2023-10-13T01:18:34;101032.72;;;13.24;85.22
74790;BME280;63318;52.406;13.416;2023-10-13T01:21:05;101032.25;;;13.24;85.44
74790;BME280;63318;52.406;13.416;2023-10-13T01:23:33;101030.91;;;13.24;85.49
74790;BME280;63318;52.406;13.416;2023-10-13T01:26:02;101032.09;;;13.24;85.46
74790;BME280;63318;52.406;13.416;2023-10-13T01:28:30;101031.48;;;13.24;85.55
74790;BME280;63318;52.406;13.416;2023-10-13T01:30:58;101033.44;;;13.24;85.55
74790;BME280;63318;52.406;13.416;2023-10-13T01:33:26;101039.02;;;13.24;85.38
74790;BME280;63318;52.406;13.416;2023-10-13T01:35:55;101038.68;;;13.24;85.47
74790;BME280;63318;52.406;13.416;2023-10-13T01:38:23;101041.36;;;13.23;85.49
74790;BME280;63318;52.406;13.416;2023-10-13T01:40:51;101040.47;;;13.23;85.52
74790;BME280;63318;52.406;13.416;2023-10-13T01:43:19;101044.77;;;13.23;85.58
74790;BME280;63318;52.406;13.416;2023-10-13T01:45:47;101040.69;;;13.23;85.52
74790;BME280;63318;52.406;13.416;2023-10-13T01:48:16;101039.91;;;13.23;85.47
74790;BME280;63318;52.406;13.416;2023-10-13T01:50:45;101039.36;;;13.23;85.58
74790;BME280;63318;52.406;13.416;2023-10-13T01:53:13;101035.27;;;13.23;85.55
74790;BME280;63318;52.406;13.416;2023-10-13T01:55:42;101035.45;;;13.23;85.67
74790;BME280;63318;52.406;13.416;2023-10-13T01:58:11;101036.51;;;13.23;85.62
74790;BME280;63318;52.406;13.416;2023-10-13T02:00:39;101036.62;;;13.24;85.60
74790;BME280;63318;52.406;13.416;2023-10-13T02:03:09;101035.45;;;13.24;85.36
74790;BME280;63318;52.406;13.416;2023-10-13T02:05:37;101030.77;;;13.23;85.47
74790;BME280;63318;52.406;13.416;2023-10-13T02:08:06;101029.75;;;13.22;85.41
74790;BME280;63318;52.406;13.416;2023-10-13T02:10:34;101021.83;;;13.22;85.48
74790;BME280;63318;52.406;13.416;2023-10-13T02:13:03;101020.09;;;13.22;85.64
74790;BME280;63318;52.406;13.416;2023-10-13T02:15:31;101013.73;;;13.22;85.43
74790;BME280;63318;52.406;13.416;2023-10-13T02:17:59;101008.45;;;13.21;85.48
74790;BME280;63318;52.406;13.416;2023-10-13T02:20:27;101005.43;;;13.21;85.61
74790;BME280;63318;52.406;13.416;2023-10-13T02:22:55;101004.66;;;13.20;85.63
74790;BME280;63318;52.406;13.416;2023-10-13T02:25:24;100998.96;;;13.20;85.69
74790;BME280;63318;52.406;13.416;2023-10-13T02:27:52;100992.88;;;13.20;85.76
74790;BME280;63318;52.406;13.416;2023-10-13T02:30:20;100988.24;;;13.20;85.59
74790;BME280;63318;52.406;13.416;2023-10-13T02:32:48;100984.52;;;13.20;85.73
74790;BME280;63318;52.406;13.416;2023-10-13T02:35:16;100989.58;;;13.19;85.81
74790;BME280;63318;52.406;13.416;2023-10-13T02:37:45;100988.70;;;13.19;85.78
74790;BME280;63318;52.406;13.416;2023-10-13T02:40:13;100988.36;;;13.19;86.03
74790;BME280;63318;52.406;13.416;2023-10-13T02:42:42;100987.86;;;13.20;86.22
74790;BME280;63318;52.406;13.416;2023-10-13T02:45:11;100989.19;;;13.20;86.37
74790;BME280;63318;52.406;13.416;2023-10-13T02:47:39;100987.07;;;13.20;86.28
74790;BME280;63318;52.406;13.416;2023-10-13T02:50:08;100982.67;;;13.21;86.34
74790;BME280;63318;52.406;13.416;2023-10-13T02:52:37;100981.32;;;13.22;86.54
74790;BME280;63318;52.406;13.416;2023-10-13T02:55:06;100980.20;;;13.23;86.50
74790;BME280;63318;52.406;13.416;2023-10-13T02:57:34;100978.98;;;13.23;86.46
74790;BME280;63318;52.406;13.416;2023-10-13T03:00:03;100976.52;;;13.24;86.34
74790;BME280;63318;52.406;13.416;2023-10-13T03:02:31;100971.71;;;13.25;86.45
74790;BME280;63318;52.406;13.416;2023-10-13T03:05:00;100967.02;;;13.25;86.41
74790;BME280;63318;52.406;13.416;2023-10-13T03:07:28;100968.03;;;13.26;86.56
74790;BME280;63318;52.406;13.416;2023-10-13T03:09:58;100965.51;;;13.27;86.58
74790;BME280;63318;52.406;13.416;2023-10-13T03:12:27;100960.20;;;13.27;86.50
74790;BME280;63318;52.406;13.416;2023-10-13T03:14:55;100958.92;;;13.28;86.52
74790;BME280;63318;52.406;13.416;2023-10-13T03:17:24;100954.79;;;13.28;86.62
74790;BME280;63318;52.406;13.416;2023-10-13T03:19:52;100952.95;;;13.29;86.73
74790;BME280;63318;52.406;13.416;2023-10-13T03:22:20;100947.41;;;13.30;86.77
74790;BME280;63318;52.406;13.416;2023-10-13T03:24:48;100938.42;;;13.30;86.61
74790;BME280;63318;52.406;13.416;2023-10-13T03:27:17;100935.07;;;13.32;86.63
74790;BME280;63318;52.406;13.416;2023-10-13T03:29:46;100928.88;;;13.32;86.62
74790;BME280;63318;52.406;13.416;2023-10-13T03:32:16;100921.00;;;13.33;86.27
74790;BME280;63318;52.406;13.416;2023-10-13T03:34:45;100913.58;;;13.32;86.41
74790;BME280;63318;52.406;13.416;2023-10-13T03:37:13;100919.98;;;13.33;86.67
74790;BME280;63318;52.406;13.416;2023-10-13T03:39:41;100916.21;;;13.33;86.65
74790;BME280;63318;52.406;13.416;2023-10-13T03:42:09;100907.83;;;13.33;86.61
74790;BME280;63318;52.406;13.416;2023-10-13T03:44:38;100901.23;;;13.34;86.66
74790;BME280;63318;52.406;13.416;2023-10-13T03:47:06;100902.74;;;13.34;86.51
74790;BME280;63318;52.406;13.416;2023-10-13T03:49:34;100905.70;;;13.34;86.68
74790;BME280;63318;52.406;13.416;2023-10-13T03:52:02;100911.11;;;13.35;86.84
74790;BME280;63318;52.406;13.416;2023-10-13T03:54:30;100912.55;;;13.36;86.83
74790;BME280;63318;52.406;13.416;2023-10-13T03:56:59;100904.80;;;13.36;86.96
74790;BME280;63318;52.406;13.416;2023-10-13T03:59:27;100906.02;;;13.37;87.06
74790;BME280;63318;52.406;13.416;2023-10-13T04:01:55;100905.58;;;13.37;86.96
74790;BME280;63318;52.406;13.416;2023-10-13T04:04:24;100906.23;;;13.38;87.14
74790;BME280;63318;52.406;13.416;2023-10-13T04:06:53;100907.57;;;13.38;87.12
74790;BME280;63318;52.406;13.416;2023-10-13T04:09:22;100899.36;;;13.40;87.33
74790;BME280;63318;52.406;13.416;2023-10-13T04:11:50;100897.78;;;13.41;87.35
74790;BME280;63318;52.406;13.416;2023-10-13T04:14:18;100896.11;;;13.42;87.36
74790;BME280;63318;52.406;13.416;2023-10-13T04:16:47;100891.65;;;13.43;87.51
74790;BME280;63318;52.406;13.416;2023-10-13T04:19:15;100892.19;;;13.44;87.51
74790;BME280;63318;52.406;13.416;2023-10-13T04:21:43;100889.45;;;13.45;87.37
74790;BME280;63318;52.406;13.416;2023-10-13T04:24:12;100885.71;;;13.45;87.34
74790;BME280;63318;52.406;13.416;2023-10-13T04:26:40;100883.86;;;13.46;87.27
74790;BME280;63318;52.406;13.416;2023-10-13T04:29:08;100881.51;;;13.46;87.46
74790;BME280;63318;52.406;13.416;2023-10-13T04:31:36;100876.83;;;13.46;87.47
74790;BME280;63318;52.406;13.416;2023-10-13T04:34:05;100875.70;;;13.47;87.41
74790;BME280;63318;52.406;13.416;2023-10-13T04:36:33;100873.29;;;13.48;87.53
74790;BME280;63318;52.406;13.416;2023-10-13T04:39:01;100866.04;;;13.49;87.58
74790;BME280;63318;52.406;13.416;2023-10-13T04:41:31;100860.32;;;13.50;87.69
74790;BME280;63318;52.406;13.416;2023-10-13T04:44:00;100857.75;;;13.51;87.66
74790;BME280;63318;52.406;13.416;2023-10-13T04:46:28;100852.27;;;13.52;87.68
74790;BME280;63318;52.406;13.416;2023-10-13T04:48:56;100847.58;;;13.53;87.69
74790;BME280;63318;52.406;13.416;2023-10-13T04:51:24;100847.96;;;13.54;87.65
74790;BME280;63318;52.406;13.416;2023-10-13T04:53:52;100842.97;;;13.55;87.65
74790;BME280;63318;52.406;13.416;2023-10-13T04:56:21;100842.14;;;13.56;87.73
74790;BME280;63318;52.406;13.416;2023-10-13T04:58:49;100837.73;;;13.55;87.75
74790;BME280;63318;52.406;13.416;2023-10-13T05:01:17;100838.29;;;13.56;87.69
74790;BME280;63318;52.406;13.416;2023-10-13T05:03:45;100840.56;;;13.57;87.62
74790;BME280;63318;52.406;13.416;2023-10-13T05:06:13;100838.17;;;13.58;87.69
74790;BME280;63318;52.406;13.416;2023-10-13T05:08:42;100836.86;;;13.59;87.85
74790;BME280;63318;52.406;13.416;2023-10-13T05:11:10;100837.52;;;13.60;87.95
74790;BME280;63318;52.406;13.416;2023-10-13T05:13:38;100837.84;;;13.61;87.83
74790;BME280;63318;52.406;13.416;2023-10-13T05:16:06;100839.35;;;13.62;87.97
74790;BME280;63318;52.406;13.416;2023-10-13T05:18:35;100836.66;;;13.63;87.88
74790;BME280;63318;52.406;13.416;2023-10-13T05:21:04;100837.32;;;13.65;87.92
74790;BME280;63318;52.406;13.416;2023-10-13T05:23:32;100834.51;;;13.67;87.85
74790;BME280;63318;52.406;13.416;2023-10-13T05:26:03;100833.43;;;13.69;87.93
74790;BME280;63318;52.406;13.416;2023-10-13T05:28:31;100826.11;;;13.70;87.96
74790;BME280;63318;52.406;13.416;2023-10-13T05:31:02;100824.86;;;13.72;88.02
74790;BME280;63318;52.406;13.416;2023-10-13T05:33:30;100828.48;;;13.73;88.16
74790;BME280;63318;52.406;13.416;2023-10-13T05:35:58;100830.86;;;13.75;88.24
74790;BME280;63318;52.406;13.416;2023-10-13T05:38:26;100831.40;;;13.77;88.04
74790;BME280;63318;52.406;13.416;2023-10-13T05:40:56;100835.29;;;13.79;88.30
74790;BME280;63318;52.406;13.416;2023-10-13T05:43:24;100828.57;;;13.81;88.30
74790;BME280;63318;52.406;13.416;2023-10-13T05:45:52;100828.77;;;13.83;88.38
74790;BME280;63318;52.406;13.416;2023-10-13T05:48:21;100832.66;;;13.85;88.45
74790;BME280;63318;52.406;13.416;2023-10-13T05:50:49;100838.30;;;13.86;88.33
74790;BME280;63318;52.406;13.416;2023-10-13T05:53:17;100845.44;;;13.87;88.28
74790;BME280;63318;52.406;13.416;2023-10-13T05:55:45;100844.75;;;13.89;88.16
74790;BME280;63318;52.406;13.416;2023-10-13T05:58:14;100840.75;;;13.91;88.27
74790;BME280;63318;52.406;13.416;2023-10-13T06:00:43;100835.37;;;13.93;88.28
74790;BME280;63318;52.406;13.416;2023-10-13T06:03:11;100828.10;;;13.95;88.31
74790;BME280;63318;52.406;13.416;2023-10-13T06:05:42;100829.92;;;13.98;88.34
74790;BME280;63318;52.406;13.416;2023-10-13T06:08:11;100823.42;;;13.99;88.29
74790;BME280;63318;52.406;13.416;2023-10-13T06:10:40;100816.70;;;14.01;88.30
74790;BME280;63318;52.406;13.416;2023-10-13T06:13:09;100816.34;;;14.03;88.28
74790;BME280;63318;52.406;13.416;2023-10-13T06:15:39;100810.45;;;14.06;88.28
74790;BME280;63318;52.406;13.416;2023-10-13T06:18:08;100805.05;;;14.08;88.47
74790;BME280;63318;52.406;13.416;2023-10-13T06:20:42;100801.55;;;14.12;88.48
74790;BME280;63318;52.406;13.416;2023-10-13T06:23:12;100797.93;;;14.16;88.49
74790;BME280;63318;52.406;13.416;2023-10-13T06:25:40;100795.08;;;14.21;88.36
74790;BME280;63318;52.406;13.416;2023-10-13T06:28:09;100805.18;;;14.27;88.45
74790;BME280;63318;52.406;13.416;2023-10-13T06:30:38;100810.17;;;14.33;88.64
74790;BME280;63318;52.406;13.416;2023-10-13T06:33:07;100811.86;;;14.37;88.59
74790;BME280;63318;52.406;13.416;2023-10-13T06:35:35;100808.52;;;14.41;88.57
74790;BME280;63318;52.406;13.416;2023-10-13T06:38:04;100810.49;;;14.43;88.50
74790;BME280;63318;52.406;13.416;2023-10-13T06:40:32;100813.88;;;14.45;88.31
74790;BME280;63318;52.406;13.416;2023-10-13T06:43:01;100811.95;;;14.47;88.30
74790;BME280;63318;52.406;13.416;2023-10-13T06:45:29;100814.73;;;14.49;88.44
74790;BME280;63318;52.406;13.416;2023-10-13T06:47:57;100814.30;;;14.51;88.57
74790;BME280;63318;52.406;13.416;2023-10-13T06:50:25;100809.36;;;14.54;88.46
74790;BME280;63318;52.406;13.416;2023-10-13T06:52:53;100807.41;;;14.57;88.56
74790;BME280;63318;52.406;13.416;2023-10-13T06:55:22;100806.93;;;14.59;88.51
74790;BME280;63318;52.406;13.416;2023-10-13T06:57:50;100805.84;;;14.62;88.44
74790;BME280;63318;52.406;13.416;2023-10-13T07:00:18;100805.77;;;14.66;88.47
74790;BME280;63318;52.406;13.416;2023-10-13T07:02:47;100805.34;;;14.70;88.41
74790;BME280;63318;52.406;13.416;2023-10-13T07:05:15;100804.59;;;14.76;88.58
74790;BME280;63318;52.406;13.416;2023-10-13T07:07:43;100805.02;;;14.81;88.60
74790;BME280;63318;52.406;13.416;2023-10-13T07:10:12;100802.17;;;14.88;88.44
74790;BME280;63318;52.406;13.416;2023-10-13T07:12:41;100798.76;;;14.97;88.59
74790;BME280;63318;52.406;13.416;2023-10-13T07:15:10;100801.26;;;15.06;88.76
74790;BME280;63318;52.406;13.416;2023-10-13T07:17:38;100794.69;;;15.13;88.63
74790;BME280;63318;52.406;13.416;2023-10-13T07:20:08;100795.40;;;15.19;88.54
74790;BME280;63318;52.406;13.416;2023-10-13T07:22:37;100796.88;;;15.25;88.27
74790;BME280;63318;52.406;13.416;2023-10-13T07:25:06;100797.18;;;15.29;88.26
74790;BME280;63318;52.406;13.416;2023-10-13T07:27:34;100789.04;;;15.35;88.17
74790;BME280;63318;52.406;13.416;2023-10-13T07:30:03;100790.59;;;15.40;88.16
74790;BME280;63318;52.406;13.416;2023-10-13T07:32:31;100791.38;;;15.44;88.19
74790;BME280;63318;52.406;13.416;2023-10-13T07:35:00;100792.38;;;15.48;88.17
74790;BME280;63318;52.406;13.416;2023-10-13T07:37:28;100786.91;;;15.53;88.00
74790;BME280;63318;52.406;13.416;2023-10-13T07:39:57;100785.89;;;15.58;87.99
74790;BME280;63318;52.406;13.416;2023-10-13T07:42:26;100779.66;;;15.64;87.99
74790;BME280;63318;52.406;13.416;2023-10-13T07:44:54;100775.66;;;15.69;87.86
74790;BME280;63318;52.406;13.416;2023-10-13T07:47:22;100775.51;;;15.74;87.82
74790;BME280;63318;52.406;13.416;2023-10-13T07:49:51;100771.84;;;15.79;87.93
74790;BME280;63318;52.406;13.416;2023-10-13T07:52:19;100768.88;;;15.84;87.71
74790;BME280;63318;52.406;13.416;2023-10-13T07:54:48;100769.99;;;15.90;87.85
74790;BME280;63318;52.406;13.416;2023-10-13T07:57:16;100775.14;;;15.97;87.79
74790;BME280;63318;52.406;13.416;2023-10-13T07:59:44;100771.70;;;16.04;87.61
74790;BME280;63318;52.406;13.416;2023-10-13T08:02:13;100769.92;;;16.12;87.69
74790;BME280;63318;52.406;13.416;2023-10-13T08:04:41;100768.20;;;16.19;87.31
74790;BME280;63318;52.406;13.416;2023-10-13T08:07:09;100764.51;;;16.25;87.21
74790;BME280;63318;52.406;13.416;2023-10-13T08:09:37;100759.48;;;16.29;87.12
74790;BME280;63318;52.406;13.416;2023-10-13T08:12:07;100753.36;;;16.32;87.02
74790;BME280;63318;52.406;13.416;2023-10-13T08:14:35;100752.77;;;16.36;87.08
74790;BME280;63318;52.406;13.416;2023-10-13T08:17:03;100753.30;;;16.40;87.14
74790;BME280;63318;52.406;13.416;2023-10-13T08:19:31;100745.05;;;16.44;86.96
74790;BME280;63318;52.406;13.416;2023-10-13T08:22:01;100748.60;;;16.47;86.86
74790;BME280;63318;52.406;13.416;2023-10-13T08:24:30;100746.19;;;16.54;86.97
74790;BME280;63318;52.406;13.416;2023-10-13T08:26:58;100744.80;;;16.63;86.98
74790;BME280;63318;52.406;13.416;2023-10-13T08:29:26;100743.55;;;16.72;86.87
74790;BME280;63318;52.406;13.416;2023-10-13T08:31:56;100741.48;;;16.79;86.73
74790;BME280;63318;52.406;13.416;2023-10-13T08:34:24;100740.67;;;16.85;86.51
74790;BME280;63318;52.406;13.416;2023-10-13T08:36:52;100745.20;;;16.92;86.46
74790;BME280;63318;52.406;13.416;2023-10-13T08:39:21;100746.20;;;16.97;86.33
74790;BME280;63318;52.406;13.416;2023-10-13T08:41:49;100742.74;;;17.01;86.25
74790;BME280;63318;52.406;13.416;2023-10-13T08:44:19;100732.29;;;17.04;86.29
74790;BME280;63318;52.406;13.416;2023-10-13T08:46:49;100724.30;;;17.07;86.23
74790;BME280;63318;52.406;13.416;2023-10-13T08:49:17;100725.73;;;17.10;85.94
74790;BME280;63318;52.406;13.416;2023-10-13T08:51:46;100718.16;;;17.12;85.96
74790;BME280;63318;52.406;13.416;2023-10-13T08:54:19;100716.00;;;17.15;85.99
74790;BME280;63318;52.406;13.416;2023-10-13T08:56:48;100714.29;;;17.19;86.02
74790;BME280;63318;52.406;13.416;2023-10-13T08:59:17;100719.08;;;17.23;85.86
74790;BME280;63318;52.406;13.416;2023-10-13T09:01:45;100718.80;;;17.25;85.65
74790;BME280;63318;52.406;13.416;2023-10-13T09:04:14;100704.15;;;17.29;85.66
74790;BME280;63318;52.406;13.416;2023-10-13T09:06:43;100700.33;;;17.34;85.66
74790;BME280;63318;52.406;13.416;2023-10-13T09:09:12;100698.95;;;17.37;85.52
74790;BME280;63318;52.406;13.416;2023-10-13T09:11:40;100694.42;;;17.38;85.36
74790;BME280;63318;52.406;13.416;2023-10-13T09:14:15;100694.46;;;17.41;85.42
74790;BME280;63318;52.406;13.416;2023-10-13T09:16:43;100691.77;;;17.45;85.39
74790;BME280;63318;52.406;13.416;2023-10-13T09:19:12;100691.86;;;17.49;85.36
74790;BME280;63318;52.406;13.416;2023-10-13T09:21:41;100686.57;;;17.51;85.24
74790;BME280;63318;52.406;13.416;2023-10-13T09:24:11;100682.23;;;17.54;85.11
74790;BME280;63318;52.406;13.416;2023-10-13T09:26:39;100679.90;;;17.55;85.05
74790;BME280;63318;52.406;13.416;2023-10-13T09:29:17;100678.13;;;17.57;85.11
74790;BME280;63318;52.406;13.416;2023-10-13T09:31:46;100678.79;;;17.59;84.89
74790;BME280;63318;52.406;13.416;2023-10-13T09:34:22;100675.52;;;17.61;84.97
74790;BME280;63318;52.406;13.416;2023-10-13T09:36:50;100676.34;;;17.62;84.96
74790;BME280;63318;52.406;13.416;2023-10-13T09:39:19;100672.80;;;17.64;84.94
74790;BME280;63318;52.406;13.416;2023-10-13T09:41:47;100663.96;;;17.64;84.94
74790;BME280;63318;52.406;13.416;2023-10-13T09:44:15;100657.73;;;17.64;85.04
74790;BME280;63318;52.406;13.416;2023-10-13T09:46:44;100649.27;;;17.64;85.01
74790;BME280;63318;52.406;13.416;2023-10-13T09:49:13;100651.83;;;17.62;84.91
74790;BME280;63318;52.406;13.416;2023-10-13T09:51:42;100649.98;;;17.61;84.91
74790;BME280;63318;52.406;13.416;2023-10-13T09:54:14;100637.63;;;17.60;84.97
74790;BME280;63318;52.406;13.416;2023-10-13T09:56:48;100629.71;;;17.59;84.93
74790;BME280;63318;52.406;13.416;2023-10-13T09:59:21;100624.68;;;17.59;84.99
74790;BME280;63318;52.406;13.416;2023-10-13T10:01:51;100620.69;;;17.59;84.97
74790;BME280;63318;52.406;13.416;2023-10-13T10:04:21;100614.59;;;17.60;85.14
74790;BME280;63318;52.406;13.416;2023-10-13T10:06:54;100609.69;;;17.62;85.08
74790;BME280;63318;52.406;13.416;2023-10-13T10:09:29;100608.81;;;17.65;85.09
74790;BME280;63318;52.406;13.416;2023-10-13T10:12:27;100607.08;;;17.71;85.27
74790;BME280;63318;52.406;13.416;2023-10-13T10:15:09;100605.75;;;17.78;85.23
74790;BME280;63318;52.406;13.416;2023-10-13T10:17:42;100599.48;;;17.82;85.14
74790;BME280;63318;52.406;13.416;2023-10-13T10:20:12;100603.45;;;17.87;85.12
74790;BME280;63318;52.406;13.416;2023-10-13T10:22:40;100602.69;;;17.90;85.01
74790;BME280;63318;52.406;13.416;2023-10-13T10:25:09;100599.59;;;17.92;84.86
74790;BME280;63318;52.406;13.416;2023-10-13T10:27:37;100600.41;;;17.95;84.81
74790;BME280;63318;52.406;13.416;2023-10-13T10:30:07;100597.09;;;17.95;84.82
74790;BME280;63318;52.406;13.416;2023-10-13T10:32:37;100594.13;;;17.96;84.86
74790;BME280;63318;52.406;13.416;2023-10-13T10:35:08;100592.61;;;17.98;84.97
74790;BME280;63318;52.406;13.416;2023-10-13T10:37:37;100595.63;;;17.98;85.03
74790;BME280;63318;52.406;13.416;2023-10-13T10:40:10;100597.23;;;17.98;84.94
74790;BME280;63318;52.406;13.416;2023-10-13T10:42:38;100591.52;;;17.98;84.92
74790;BME280;63318;52.406;13.416;2023-10-13T10:45:11;100588.75;;;17.97;84.97
74790;BME280;63318;52.406;13.416;2023-10-13T10:47:48;100584.81;;;17.96;85.04
74790;BME280;63318;52.406;13.416;2023-10-13T10:50:26;100581.34;;;17.95;85.12
74790;BME280;63318;52.406;13.416;2023-10-13T10:52:55;100579.98;;;17.95;85.06
74790;BME280;63318;52.406;13.416;2023-10-13T10:55:23;100580.70;;;17.96;85.13
74790;BME280;63318;52.406;13.416;2023-10-13T10:58:00;100574.89;;;17.96;85.24
74790;BME280;63318;52.406;13.416;2023-10-13T11:00:29;100566.05;;;17.97;85.21
74790;BME280;63318;52.406;13.416;2023-10-13T11:02:57;100558.75;;;17.97;85.18
74790;BME280;63318;52.406;13.416;2023-10-13T11:05:26;100549.19;;;17.98;85.21
74790;BME280;63318;52.406;13.416;2023-10-13T11:07:54;100543.09;;;18.00;85.39
74790;BME280;63318;52.406;13.416;2023-10-13T11:10:22;100545.11;;;18.02;85.42
74790;BME280;63318;52.406;13.416;2023-10-13T11:12:57;100537.73;;;18.04;85.40
74790;BME280;63318;52.406;13.416;2023-10-13T11:15:26;100536.73;;;18.07;85.41
74790;BME280;63318;52.406;13.416;2023-10-13T11:17:54;100519.74;;;18.09;85.36
74790;BME280;63318;52.406;13.416;2023-10-13T11:20:22;100528.20;;;18.12;85.42
74790;BME280;63318;52.406;13.416;2023-10-13T11:22:51;100519.65;;;18.14;85.37
74790;BME280;63318;52.406;13.416;2023-10-13T11:25:23;100517.00;;;18.16;85.43
74790;BME280;63318;52.406;13.416;2023-10-13T11:27:52;100510.71;;;18.17;85.26
74790;BME280;63318;52.406;13.416;2023-10-13T11:30:21;100511.75;;;18.18;85.33
74790;BME280;63318;52.406;13.416;2023-10-13T11:32:59;100514.31;;;18.20;85.30
74790;BME280;63318;52.406;13.416;2023-10-13T11:35:28;100517.30;;;18.22;85.33
74790;BME280;63318;52.406;13.416;2023-10-13T11:37:56;100503.14;;;18.23;85.16
74790;BME280;63318;52.406;13.416;2023-10-13T11:40:24;100497.64;;;18.24;85.16
74790;BME280;63318;52.406;13.416;2023-10-13T11:42:52;100499.04;;;18.25;85.17
74790;BME280;63318;52.406;13.416;2023-10-13T11:45:21;100491.89;;;18.25;85.06
74790;BME280;63318;52.406;13.416;2023-10-13T11:47:49;100485.34;;;18.26;85.06
74790;BME280;63318;52.406;13.416;2023-10-13T11:50:17;100478.66;;;18.27;85.10
74790;BME280;63318;52.406;13.416;2023-10-13T11:52:45;100479.84;;;18.30;85.10
74790;BME280;63318;52.406;13.416;2023-10-13T11:55:14;100478.45;;;18.33;85.01
74790;BME280;63318;52.406;13.416;2023-10-13T11:57:42;100474.98;;;18.36;84.94
74790;BME280;63318;52.406;13.416;2023-10-13T12:00:12;100475.77;;;18.39;84.79
74790;BME280;63318;52.406;13.416;2023-10-13T12:02:41;100472.61;;;18.43;84.81
74790;BME280;63318;52.406;13.416;2023-10-13T12:05:09;100470.42;;;18.45;84.84
74790;BME280;63318;52.406;13.416;2023-10-13T12:07:37;100465.73;;;18.47;84.70
74790;BME280;63318;52.406;13.416;2023-10-13T12:10:07;100461.32;;;18.50;84.65
74790;BME280;63318;52.406;13.416;2023-10-13T12:12:35;100458.40;;;18.53;84.53
74790;BME280;63318;52.406;13.416;2023-10-13T12:15:03;100454.11;;;18.56;84.60
74790;BME280;63318;52.406;13.416;2023-10-13T12:17:32;100455.77;;;18.59;84.46
74790;BME280;63318;52.406;13.416;2023-10-13T12:20:00;100449.28;;;18.62;84.46
74790;BME280;63318;52.406;13.416;2023-10-13T12:22:28;100443.10;;;18.67;84.57
74790;BME280;63318;52.406;13.416;2023-10-13T12:24:57;100439.29;;;18.71;84.39
74790;BME280;63318;52.406;13.416;2023-10-13T12:27:25;100436.52;;;18.76;84.42
74790;BME280;63318;52.406;13.416;2023-10-13T12:29:54;100427.60;;;18.80;84.29
74790;BME280;63318;52.406;13.416;2023-10-13T12:32:22;100423.17;;;18.86;84.18
74790;BME280;63318;52.406;13.416;2023-10-13T12:34:51;100422.33;;;18.90;84.09
74790;BME280;63318;52.406;13.416;2023-10-13T12:37:19;100420.09;;;18.94;84.04
74790;BME280;63318;52.406;13.416;2023-10-13T12:39:48;100421.67;;;18.97;84.02
74790;BME280;63318;52.406;13.416;2023-10-13T12:42:16;100421.42;;;19.01;83.86
74790;BME280;63318;52.406;13.416;2023-10-13T12:44:44;100417.99;;;19.04;83.75
74790;BME280;63318;52.406;13.416;2023-10-13T12:47:12;100411.64;;;19.08;83.54
74790;BME280;63318;52.406;13.416;2023-10-13T12:49:41;100408.05;;;19.12;83.69